This is the latest recevied weather packets stored in our database for station/object IW7DVM-13. If no packets are shown the sender has not sent any weather packets the latest 10 day(s).
| Time | Temp. | Humidity | Pressure | Rain* | Wind** | Luminosity | Snow |
|---|---|---|---|---|---|---|---|
| 1787830803 | 31.67° C | 56% | 1011.7 hPa | 0 mm | - | - | - |
| 1787830503 | 31.67° C | 55% | 1011.7 hPa | 0 mm | - | - | - |
| 1787830203 | 31.67° C | 56% | 1011.8 hPa | 0 mm | - | - | - |
| 1787829903 | 32.22° C | 58% | 1011.7 hPa | 0 mm | - | - | - |
| 1787829603 | 31.67° C | 58% | 1011.7 hPa | 0 mm | - | - | - |
| 1787829303 | 31.67° C | 58% | 1011.8 hPa | 0 mm | - | - | - |
| 1787829003 | 31.11° C | 60% | 1012 hPa | 0 mm | - | - | - |
| 1787828703 | 31.67° C | 58% | 1011.9 hPa | 0 mm | - | - | - |
| 1787828403 | 31.67° C | 58% | 1011.9 hPa | 0 mm | - | - | - |
| 1787828103 | 32.22° C | 58% | 1011.8 hPa | 0 mm | - | - | - |
| 1787827803 | 32.22° C | 56% | 1011.9 hPa | 0 mm | - | - | - |
| 1787827503 | 32.78° C | 52% | 1011.7 hPa | 0 mm | - | - | - |
| 1787827203 | 32.78° C | 51% | 1011.7 hPa | 0 mm | - | - | - |
| 1787826903 | 32.78° C | 56% | 1011.7 hPa | 0 mm | - | - | - |
| 1787826603 | 31.67° C | 59% | 1011.9 hPa | 0 mm | - | - | - |
| 1787826303 | 31.67° C | 60% | 1011.9 hPa | 0 mm | - | - | - |
| 1787826003 | 31.67° C | 59% | 1011.9 hPa | 0 mm | - | - | - |
| 1787825703 | 31.67° C | 59% | 1012 hPa | 0 mm | - | - | - |
| 1787825403 | 32.22° C | 57% | 1012.1 hPa | 0 mm | - | - | - |
| 1787825103 | 32.22° C | 54% | 1012.1 hPa | 0 mm | - | - | - |
| 1787824803 | 32.22° C | 53% | 1011.9 hPa | 0 mm | - | - | - |
| 1787824503 | 32.22° C | 53% | 1011.9 hPa | 0 mm | - | - | - |
| 1787824203 | 32.22° C | 54% | 1012 hPa | 0 mm | - | - | - |
| 1787823904 | 32.22° C | 55% | 1012.1 hPa | 0 mm | - | - | - |
| 1787823603 | 32.22° C | 56% | 1012.2 hPa | 0 mm | - | - | - |
* Rain latest hour (hover to see other rain measurements)
** Current wind speed in m/s (hover to see current wind gust speed)